Time;durP1;ratioP1;P1;durP2;ratioP2;P2;SDS_P1;SDS_P2;PMS_P1;PMS_P2;Temp;Humidity;BMP_temperature;BMP_pressure;BME280_temperature;BME280_humidity;BME280_pressure;Samples;Min_cycle;Max_cycle;Signal;HPM_P1;HPM_P2
2023/12/13 00:02:44;;;;;;;;;;;;;;;;;;6304813;28;19918;-80
2023/12/13 00:05:44;;;;;;;;;;;;;;;;;;6305309;28;19928;-80
2023/12/13 00:08:44;;;;;;;;;;;;;;;;;;6304106;28;19916;-82
2023/12/13 00:11:44;;;;;;;;;;;;;;;;;;6301333;28;19923;-82
2023/12/13 00:14:44;;;;;;;;;;;;;;;;;;6300950;28;19924;-84
2023/12/13 00:17:44;;;;;;;;;;;;;;;;;;6299459;28;19943;-84
2023/12/13 00:20:45;;;;;;;;;;;;;;;;;;6300524;28;19915;-84
2023/12/13 00:23:46;;;;;;;;;;;;;;;;;;6304187;28;19925;-84
2023/12/13 00:26:46;;;;;;;;;;;;;;;;;;6307607;28;19969;-84
2023/12/13 00:29:46;;;;;;;;;;;;;;;;;;6298320;28;19916;-84
2023/12/13 00:32:46;;;;;;;;;;;;;;;;;;6300946;28;19917;-84
2023/12/13 00:35:46;;;;;;;;;;;;;;;;;;6311038;28;20304;-84
2023/12/13 00:38:47;;;;;;;;;;;;;;;;;;5942540;28;9999695;-84
2023/12/13 00:41:47;;;;;;;;;;;;;;;;;;6298596;28;19913;-84
2023/12/13 00:44:47;;;;;;;;;;;;;;;;;;6313070;28;20375;-84
2023/12/13 00:47:48;;;;;;;;;;;;;;;;;;6297284;28;20345;-84
2023/12/13 00:50:48;;;;;;;;;;;;;;;;;;6310821;28;20285;-85
2023/12/13 00:53:48;;;;;;;;;;;;;;;;;;6311386;28;19916;-84
2023/12/13 00:56:48;;;;;;;;;;;;;;;;;;6310504;28;19917;-84
2023/12/13 00:59:48;;;;;;;;;;;;;;;;;;6303589;28;19912;-84
2023/12/13 01:02:48;;;;;;;;;;;;;;;;;;6305464;28;19912;-84
2023/12/13 01:05:49;;;;;;;;;;;;;;;;;;6301091;28;19916;-84
2023/12/13 01:08:49;;;;;;;;;;;;;;;;;;6292153;28;20265;-84
2023/12/13 01:11:49;;;;;;;;;;;;;;;;;;6315562;28;19919;-85
2023/12/13 01:14:49;;;;;;;;;;;;;;;;;;6309152;28;19960;-84
2023/12/13 01:17:49;;;;;;;;;;;;;;;;;;6313637;28;19943;-84
2023/12/13 01:20:49;;;;;;;;;;;;;;;;;;6291202;28;20010;-84
2023/12/13 01:23:50;;;;;;;;;;;;;;;;;;6308196;28;20003;-81
2023/12/13 01:26:50;;;;;;;;;;;;;;;;;;6307620;28;19923;-82
2023/12/13 01:29:50;;;;;;;;;;;;;;;;;;6306575;28;19919;-80
2023/12/13 01:32:50;;;;;;;;;;;;;;;;;;6308970;28;19912;-81
2023/12/13 01:35:50;;;;;;;;;;;;;;;;;;6309108;28;20348;-81
2023/12/13 01:38:50;;;;;;;;;;;;;;;;;;6288095;28;19939;-81
2023/12/13 01:41:51;;;;;;;;;;;;;;;;;;6311893;28;19920;-81
2023/12/13 01:44:51;;;;;;;;;;;;;;;;;;6306377;28;19916;-80
2023/12/13 01:47:51;;;;;;;;;;;;;;;;;;6310082;28;19920;-81
2023/12/13 01:50:51;;;;;;;;;;;;;;;;;;6306388;28;19912;-81
2023/12/13 01:53:51;;;;;;;;;;;;;;;;;;6304309;28;19928;-81
2023/12/13 01:56:52;;;;;;;;;;;;;;;;;;6300499;28;19917;-80
2023/12/13 01:59:52;;;;;;;;;;;;;;;;;;6302934;28;19984;-80
2023/12/13 02:02:52;;;;;;;;;;;;;;;;;;6306881;28;19916;-81
2023/12/13 02:05:52;;;;;;;;;;;;;;;;;;6309391;28;19917;-80
2023/12/13 02:08:52;;;;;;;;;;;;;;;;;;6303705;28;19924;-81
2023/12/13 02:11:52;;;;;;;;;;;;;;;;;;6299872;28;19917;-81
2023/12/13 02:14:53;;;;;;;;;;;;;;;;;;6313758;28;19923;-80
2023/12/13 02:17:53;;;;;;;;;;;;;;;;;;6312350;28;19923;-80
2023/12/13 02:20:53;;;;;;;;;;;;;;;;;;6315413;28;19920;-82
2023/12/13 02:23:53;;;;;;;;;;;;;;;;;;6303574;28;19957;-81
2023/12/13 02:26:54;;;;;;;;;;;;;;;;;;6302432;28;19973;-80
2023/12/13 02:29:54;;;;;;;;;;;;;;;;;;6312491;28;19934;-80
2023/12/13 02:32:55;;;;;;;;;;;;;;;;;;6318312;28;19920;-80
2023/12/13 02:35:55;;;;;;;;;;;;;;;;;;6310360;28;19920;-80
2023/12/13 02:38:55;;;;;;;;;;;;;;;;;;5946660;27;10000225;-80
2023/12/13 02:41:55;;;;;;;;;;;;;;;;;;6306480;28;20006;-80
2023/12/13 02:44:55;;;;;;;;;;;;;;;;;;6294916;28;20008;-80
2023/12/13 02:47:56;;;;;;;;;;;;;;;;;;6306472;28;20015;-80
2023/12/13 02:50:56;;;;;;;;;;;;;;;;;;6306004;28;20343;-80
2023/12/13 02:53:56;;;;;;;;;;;;;;;;;;6306343;28;19916;-83
2023/12/13 02:56:56;;;;;;;;;;;;;;;;;;6322227;28;20432;-80
2023/12/13 02:59:56;;;;;;;;;;;;;;;;;;6304278;28;19912;-80
2023/12/13 03:02:58;;;;;;;;;;;;;;;;;;6308003;28;19968;-80
2023/12/13 03:05:58;;;;;;;;;;;;;;;;;;6297602;28;19948;-80
2023/12/13 03:08:58;;;;;;;;;;;;;;;;;;6311828;28;19930;-80
2023/12/13 03:11:58;;;;;;;;;;;;;;;;;;6308141;28;20289;-80
2023/12/13 03:14:58;;;;;;;;;;;;;;;;;;6310122;28;20288;-81
2023/12/13 03:17:58;;;;;;;;;;;;;;;;;;6306262;28;20293;-81
2023/12/13 03:20:58;;;;;;;;;;;;;;;;;;6301012;28;20328;-80
2023/12/13 03:23:58;;;;;;;;;;;;;;;;;;6305218;28;20710;-80
2023/12/13 03:26:59;;;;;;;;;;;;;;;;;;6314878;28;20292;-80
2023/12/13 03:29:59;;;;;;;;;;;;;;;;;;6305580;28;20281;-80
2023/12/13 03:32:59;;;;;;;;;;;;;;;;;;6306664;28;20317;-80
2023/12/13 03:35:59;;;;;;;;;;;;;;;;;;6297173;28;19973;-80
2023/12/13 03:38:59;;;;;;;;;;;;;;;;;;6307778;28;20018;-80
2023/12/13 03:41:59;;;;;;;;;;;;;;;;;;6309094;28;19935;-80
2023/12/13 03:44:59;;;;;;;;;;;;;;;;;;6307006;28;19991;-84
2023/12/13 03:48:00;;;;;;;;;;;;;;;;;;6305979;28;19977;-85
2023/12/13 03:51:01;;;;;;;;;;;;;;;;;;6300874;28;19999;-84
2023/12/13 03:54:01;;;;;;;;;;;;;;;;;;6306182;28;19917;-85
2023/12/13 03:57:01;;;;;;;;;;;;;;;;;;6303005;28;19912;-84
2023/12/13 04:00:01;;;;;;;;;;;;;;;;;;6306367;28;19916;-84
2023/12/13 04:03:02;;;;;;;;;;;;;;;;;;6309195;28;19912;-84
2023/12/13 04:06:02;;;;;;;;;;;;;;;;;;6303179;28;19917;-84
2023/12/13 04:09:02;;;;;;;;;;;;;;;;;;6303828;28;20626;-84
2023/12/13 04:12:02;;;;;;;;;;;;;;;;;;6302997;28;19916;-85
2023/12/13 04:15:03;;;;;;;;;;;;;;;;;;6307534;28;19912;-84
2023/12/13 04:18:03;;;;;;;;;;;;;;;;;;6308712;28;20413;-84
2023/12/13 04:21:03;;;;;;;;;;;;;;;;;;6297619;28;19920;-84
2023/12/13 04:24:04;;;;;;;;;;;;;;;;;;6302042;28;19940;-84
2023/12/13 04:27:04;;;;;;;;;;;;;;;;;;6304722;28;19971;-85
2023/12/13 04:30:04;;;;;;;;;;;;;;;;;;6324409;28;20180;-84
2023/12/13 04:33:04;;;;;;;;;;;;;;;;;;6311389;28;19922;-84
2023/12/13 04:36:04;;;;;;;;;;;;;;;;;;6282857;28;19944;-84
2023/12/13 04:39:05;;;;;;;;;;;;;;;;;;6299957;28;20288;-84
2023/12/13 04:42:05;;;;;;;;;;;;;;;;;;6310574;28;20403;-84
2023/12/13 04:45:05;;;;;;;;;;;;;;;;;;6304904;28;19970;-84
2023/12/13 04:48:05;;;;;;;;;;;;;;;;;;6309625;28;20353;-84
2023/12/13 04:51:06;;;;;;;;;;;;;;;;;;6310290;28;19919;-84
2023/12/13 04:54:06;;;;;;;;;;;;;;;;;;6295566;28;20370;-81
2023/12/13 04:57:06;;;;;;;;;;;;;;;;;;6311040;28;20052;-81
2023/12/13 05:00:07;;;;;;;;;;;;;;;;;;6297608;28;20440;-81
2023/12/13 05:03:07;;;;;;;;;;;;;;;;;;6310060;28;19951;-80
2023/12/13 05:06:08;;;;;;;;;;;;;;;;;;6303163;28;19922;-80
2023/12/13 05:09:08;;;;;;;;;;;;;;;;;;6300751;28;19917;-81
2023/12/13 05:12:08;;;;;;;;;;;;;;;;;;6313953;28;20000;-81
2023/12/13 05:15:08;;;;;;;;;;;;;;;;;;6293387;28;19909;-81
2023/12/13 05:18:09;;;;;;;;;;;;;;;;;;6299816;28;19912;-81
2023/12/13 05:21:09;;;;;;;;;;;;;;;;;;6301658;28;19917;-80
2023/12/13 05:24:09;;;;;;;;;;;;;;;;;;6305745;28;20411;-80
2023/12/13 05:27:09;;;;;;;;;;;;;;;;;;6303762;28;19917;-81
2023/12/13 05:30:09;;;;;;;;;;;;;;;;;;6324299;28;19921;-81
2023/12/13 05:33:09;;;;;;;;;;;;;;;;;;6301344;28;19913;-81
2023/12/13 05:36:09;;;;;;;;;;;;;;;;;;6298473;28;19920;-80
2023/12/13 05:39:10;;;;;;;;;;;;;;;;;;6293138;28;19918;-81
2023/12/13 05:42:10;;;;;;;;;;;;;;;;;;6299318;28;19920;-81
2023/12/13 05:45:10;;;;;;;;;;;;;;;;;;6308017;28;19924;-81
2023/12/13 05:48:11;;;;;;;;;;;;;;;;;;6302915;28;19916;-81
2023/12/13 05:51:11;;;;;;;;;;;;;;;;;;6309212;28;20007;-81
2023/12/13 05:54:11;;;;;;;;;;;;;;;;;;6300040;28;19917;-81
2023/12/13 05:57:12;;;;;;;;;;;;;;;;;;6298095;28;19919;-80
2023/12/13 06:00:13;;;;;;;;;;;;;;;;;;6316049;28;20395;-81
2023/12/13 06:03:13;;;;;;;;;;;;;;;;;;6312060;28;20385;-81
2023/12/13 06:06:13;;;;;;;;;;;;;;;;;;6306334;28;19920;-84
2023/12/13 06:09:14;;;;;;;;;;;;;;;;;;6308228;28;19926;-84
2023/12/13 06:12:16;;;;;;;;;;;;;;;;;;6310115;28;19913;-83
2023/12/13 06:15:16;;;;;;;;;;;;;;;;;;6309041;28;19937;-84
2023/12/13 06:18:16;;;;;;;;;;;;;;;;;;6308151;28;20296;-84
2023/12/13 06:21:16;;;;;;;;;;;;;;;;;;6304493;28;20280;-84
2023/12/13 06:24:17;;;;;;;;;;;;;;;;;;6300915;28;19913;-84
2023/12/13 06:27:17;;;;;;;;;;;;;;;;;;6312483;28;19970;-83
2023/12/13 06:30:17;;;;;;;;;;;;;;;;;;6313883;28;20399;-84
2023/12/13 06:33:18;;;;;;;;;;;;;;;;;;6304213;28;19931;-84
2023/12/13 06:36:18;;;;;;;;;;;;;;;;;;6310286;28;19912;-84
2023/12/13 06:39:19;;;;;;;;;;;;;;;;;;6302654;28;20258;-84
2023/12/13 06:42:19;;;;;;;;;;;;;;;;;;6323364;28;20361;-84
2023/12/13 06:45:20;;;;;;;;;;;;;;;;;;6294195;28;19916;-84
2023/12/13 06:48:20;;;;;;;;;;;;;;;;;;6312899;28;19916;-83
2023/12/13 06:51:21;;;;;;;;;;;;;;;;;;6295822;28;19912;-83
2023/12/13 06:54:21;;;;;;;;;;;;;;;;;;6300816;28;19913;-84
2023/12/13 06:57:21;;;;;;;;;;;;;;;;;;6312824;28;19919;-83
2023/12/13 07:00:23;;;;;;;;;;;;;;;;;;6308102;28;19938;-84
2023/12/13 07:03:23;;;;;;;;;;;;;;;;;;6311091;28;19920;-84
2023/12/13 07:06:23;;;;;;;;;;;;;;;;;;6289020;28;19931;-84
2023/12/13 07:09:23;;;;;;;;;;;;;;;;;;6318876;28;19966;-84
2023/12/13 07:12:27;;;;;;;;;;;;;;;;;;6306407;28;19916;-85
2023/12/13 07:15:27;;;;;;;;;;;;;;;;;;5956952;28;10000416;-83
2023/12/13 07:18:27;;;;;;;;;;;;;;;;;;6301810;28;19916;-82
2023/12/13 07:21:27;;;;;;;;;;;;;;;;;;6303210;28;19916;-82
2023/12/13 07:24:27;;;;;;;;;;;;;;;;;;6288520;28;19920;-81
2023/12/13 07:27:28;;;;;;;;;;;;;;;;;;6304956;28;19920;-82
2023/12/13 07:30:28;;;;;;;;;;;;;;;;;;6304558;28;19928;-83
2023/12/13 07:33:28;;;;;;;;;;;;;;;;;;6313810;28;19916;-82
2023/12/13 07:36:28;;;;;;;;;;;;;;;;;;6305233;28;19917;-81
2023/12/13 07:39:30;;;;;;;;;;;;;;;;;;6309037;28;19916;-83
2023/12/13 07:42:31;;;;;;;;;;;;;;;;;;5599945;28;10000741;-81
2023/12/13 07:45:32;;;;;;;;;;;;;;;;;;6289904;28;19916;-81
2023/12/13 07:48:32;;;;;;;;;;;;;;;;;;6300852;28;20353;-81
2023/12/13 07:51:32;;;;;;;;;;;;;;;;;;6307606;28;20365;-81
2023/12/13 07:54:32;;;;;;;;;;;;;;;;;;6287041;28;19912;-81
2023/12/13 07:57:32;;;;;;;;;;;;;;;;;;6311937;28;19938;-82
2023/12/13 08:00:32;;;;;;;;;;;;;;;;;;6308174;28;19957;-81
2023/12/13 08:03:32;;;;;;;;;;;;;;;;;;6315174;28;19912;-81
2023/12/13 08:06:32;;;;;;;;;;;;;;;;;;6308499;28;19916;-81
2023/12/13 08:09:33;;;;;;;;;;;;;;;;;;6321106;28;19922;-81
2023/12/13 08:12:34;;;;;;;;;;;;;;;;;;6305614;28;19957;-83
2023/12/13 08:15:34;;;;;;;;;;;;;;;;;;6302418;28;19916;-81
2023/12/13 08:18:34;;;;;;;;;;;;;;;;;;6311362;28;20335;-81
2023/12/13 08:21:40;;;;;;;;;;;;;;;;;;6309328;28;19912;-82
2023/12/13 08:24:42;;;;;;;;;;;;;;;;;;6306578;28;20381;-82
2023/12/13 08:27:42;;;;;;;;;;;;;;;;;;6314599;28;20381;-81
2023/12/13 08:30:42;;;;;;;;;;;;;;;;;;6307966;28;20027;-82
2023/12/13 08:33:42;;;;;;;;;;;;;;;;;;6297779;28;20026;-81
2023/12/13 08:36:42;;;;;;;;;;;;;;;;;;6317953;28;19912;-81
2023/12/13 08:39:42;;;;;;;;;;;;;;;;;;6300004;28;19920;-82
2023/12/13 08:42:42;;;;;;;;;;;;;;;;;;6306972;28;19951;-82
2023/12/13 08:45:43;;;;;;;;;;;;;;;;;;6294957;28;19928;-82
2023/12/13 08:48:45;;;;;;;;;;;;;;;;;;5605492;28;10000691;-82
2023/12/13 08:51:46;;;;;;;;;;;;;;;;;;6298082;28;19913;-80
2023/12/13 08:54:46;;;;;;;;;;;;;;;;;;6314280;28;19916;-81
2023/12/13 08:57:47;;;;;;;;;;;;;;;;;;5590332;28;10000781;-81
2023/12/13 09:00:47;;;;;;;;;;;;;;;;;;6305652;28;20396;-82
2023/12/13 09:03:47;;;;;;;;;;;;;;;;;;6304965;28;19943;-82
2023/12/13 09:06:53;;;;;;;;;;;;;;;;;;6152389;28;10000020;-82
2023/12/13 09:09:53;;;;;;;;;;;;;;;;;;6304184;28;19916;-82
2023/12/13 09:12:53;;;;;;;;;;;;;;;;;;6290999;28;19916;-81
2023/12/13 09:15:54;;;;;;;;;;;;;;;;;;6303187;28;19913;-81
2023/12/13 09:18:54;;;;;;;;;;;;;;;;;;6302951;28;19924;-81
2023/12/13 09:21:55;;;;;;;;;;;;;;;;;;6303778;28;19916;-80
2023/12/13 09:24:55;;;;;;;;;;;;;;;;;;6303579;28;19916;-82
2023/12/13 09:27:55;;;;;;;;;;;;;;;;;;6310551;28;20381;-82
2023/12/13 09:30:55;;;;;;;;;;;;;;;;;;6297962;28;23133;-80
2023/12/13 09:33:57;;;;;;;;;;;;;;;;;;6312903;28;20087;-81
2023/12/13 09:36:57;;;;;;;;;;;;;;;;;;6309113;28;19938;-81
2023/12/13 09:39:59;;;;;;;;;;;;;;;;;;6309670;28;19912;-81
2023/12/13 09:43:02;;;;;;;;;;;;;;;;;;6304489;28;19920;-82
2023/12/13 09:46:04;;;;;;;;;;;;;;;;;;6311803;28;19952;-81
2023/12/13 09:49:04;;;;;;;;;;;;;;;;;;6308347;28;19920;-80
2023/12/13 09:52:05;;;;;;;;;;;;;;;;;;6308832;28;19982;-81
2023/12/13 09:55:06;;;;;;;;;;;;;;;;;;6302574;28;20395;-82
2023/12/13 09:58:07;;;;;;;;;;;;;;;;;;6316632;28;19909;-81
2023/12/13 10:01:12;;;;;;;;;;;;;;;;;;6317107;28;19916;-81
2023/12/13 10:04:12;;;;;;;;;;;;;;;;;;6323855;28;20299;-81
2023/12/13 10:07:13;;;;;;;;;;;;;;;;;;6310508;28;19920;-81
2023/12/13 10:10:13;;;;;;;;;;;;;;;;;;6305151;28;20284;-82
2023/12/13 10:13:13;;;;;;;;;;;;;;;;;;6308929;28;20280;-81
2023/12/13 10:16:13;;;;;;;;;;;;;;;;;;6303398;28;19912;-81
2023/12/13 10:19:13;;;;;;;;;;;;;;;;;;6307070;28;19959;-81
2023/12/13 10:22:13;;;;;;;;;;;;;;;;;;6322079;28;20007;-80
2023/12/13 10:25:13;;;;;;;;;;;;;;;;;;6306818;28;19924;-81
2023/12/13 10:28:14;;;;;;;;;;;;;;;;;;6327614;27;19974;-82
2023/12/13 10:31:14;;;;;;;;;;;;;;;;;;6312825;28;19920;-81
2023/12/13 10:34:15;;;;;;;;;;;;;;;;;;6308868;28;19920;-84
2023/12/13 10:37:15;;;;;;;;;;;;;;;;;;6306963;28;19913;-81
2023/12/13 10:40:17;;;;;;;;;;;;;;;;;;6305189;28;19912;-81
2023/12/13 10:43:18;;;;;;;;;;;;;;;;;;6305879;28;19912;-81
2023/12/13 10:46:18;;;;;;;;;;;;;;;;;;6305397;28;19922;-86
2023/12/13 10:49:18;;;;;;;;;;;;;;;;;;6325390;28;20377;-86
2023/12/13 10:52:18;;;;;;;;;;;;;;;;;;6295686;28;20475;-87
2023/12/13 10:55:19;;;;;;;;;;;;;;;;;;6327062;28;20356;-86
2023/12/13 10:58:20;;;;;;;;;;;;;;;;;;6300437;28;19920;-86
2023/12/13 11:01:20;;;;;;;;;;;;;;;;;;6296368;28;19912;-86
2023/12/13 11:04:20;;;;;;;;;;;;;;;;;;6311067;28;19912;-86
2023/12/13 11:07:20;;;;;;;;;;;;;;;;;;6305523;28;19920;-87
2023/12/13 11:10:22;;;;;;;;;;;;;;;;;;6302444;28;19912;-87
2023/12/13 11:13:25;;;;;;;;;;;;;;;;;;6304122;28;19999;-86
2023/12/13 11:16:25;;;;;;;;;;;;;;;;;;6313554;28;20002;-86
2023/12/13 11:19:25;;;;;;;;;;;;;;;;;;6305077;28;19912;-87
2023/12/13 11:22:26;;;;;;;;;;;;;;;;;;6301131;28;20407;-87
2023/12/13 11:25:26;;;;;;;;;;;;;;;;;;6300443;28;19916;-86
2023/12/13 11:28:26;;;;;;;;;;;;;;;;;;5957824;28;10000463;-86
2023/12/13 11:31:26;;;;;;;;;;;;;;;;;;6305221;28;19999;-86
2023/12/13 11:34:26;;;;;;;;;;;;;;;;;;6298315;28;19912;-86
2023/12/13 11:37:29;;;;;;;;;;;;;;;;;;6306756;28;19999;-86
2023/12/13 11:40:29;;;;;;;;;;;;;;;;;;6305499;28;19916;-87
2023/12/13 11:43:29;;;;;;;;;;;;;;;;;;6298375;28;19991;-86
2023/12/13 11:46:30;;;;;;;;;;;;;;;;;;6328764;28;19916;-86
2023/12/13 11:49:30;;;;;;;;;;;;;;;;;;6309160;28;19916;-86
2023/12/13 11:52:31;;;;;;;;;;;;;;;;;;6300916;28;19955;-85
2023/12/13 11:55:31;;;;;;;;;;;;;;;;;;6307318;28;19916;-85
2023/12/13 11:58:31;;;;;;;;;;;;;;;;;;6319716;28;19964;-86
2023/12/13 12:01:31;;;;;;;;;;;;;;;;;;6310403;28;20007;-85
2023/12/13 12:04:31;;;;;;;;;;;;;;;;;;6301663;28;19923;-86
2023/12/13 12:07:32;;;;;;;;;;;;;;;;;;6306353;28;19994;-85
2023/12/13 12:10:32;;;;;;;;;;;;;;;;;;6307392;28;19913;-87
2023/12/13 12:13:32;;;;;;;;;;;;;;;;;;6314500;28;19913;-86
2023/12/13 12:16:32;;;;;;;;;;;;;;;;;;6304036;28;19912;-84
2023/12/13 12:19:32;;;;;;;;;;;;;;;;;;6300303;28;19959;-86
2023/12/13 12:22:34;;;;;;;;;;;;;;;;;;6304768;28;20011;-85
2023/12/13 12:25:34;;;;;;;;;;;;;;;;;;6305795;28;19920;-86
2023/12/13 12:28:35;;;;;;;;;;;;;;;;;;6302571;28;19977;-86
2023/12/13 12:31:35;;;;;;;;;;;;;;;;;;6310674;28;19920;-86
2023/12/13 12:34:35;;;;;;;;;;;;;;;;;;6305841;28;20748;-86
2023/12/13 12:37:35;;;;;;;;;;;;;;;;;;6291986;28;19920;-86
2023/12/13 12:40:36;;;;;;;;;;;;;;;;;;6301164;28;19923;-86
2023/12/13 12:43:37;;;;;;;;;;;;;;;;;;6289970;28;19927;-86
2023/12/13 12:46:37;;;;;;;;;;;;;;;;;;6291730;28;19943;-85
2023/12/13 12:49:37;;;;;;;;;;;;;;;;;;6300553;28;19920;-86
2023/12/13 12:52:38;;;;;;;;;;;;;;;;;;6302680;28;19920;-87
2023/12/13 12:55:38;;;;;;;;;;;;;;;;;;6303662;28;19939;-86
2023/12/13 12:58:38;;;;;;;;;;;;;;;;;;6294396;28;20007;-86
2023/12/13 13:01:38;;;;;;;;;;;;;;;;;;6299616;28;19970;-86
2023/12/13 13:04:39;;;;;;;;;;;;;;;;;;6301158;28;20023;-86
2023/12/13 13:07:39;;;;;;;;;;;;;;;;;;6306420;28;19927;-86
2023/12/13 13:10:39;;;;;;;;;;;;;;;;;;6306116;28;19920;-86
2023/12/13 13:13:39;;;;;;;;;;;;;;;;;;6287830;28;19917;-80
2023/12/13 13:16:39;;;;;;;;;;;;;;;;;;6305363;28;19916;-80
2023/12/13 13:19:39;;;;;;;;;;;;;;;;;;6304299;28;20007;-80
2023/12/13 13:22:40;;;;;;;;;;;;;;;;;;6305185;28;19923;-80
2023/12/13 13:25:40;;;;;;;;;;;;;;;;;;6300860;28;19920;-81
2023/12/13 13:28:41;;;;;;;;;;;;;;;;;;6308908;28;19916;-80
2023/12/13 13:31:41;;;;;;;;;;;;;;;;;;6311144;28;20005;-80
2023/12/13 13:34:41;;;;;;;;;;;;;;;;;;6286843;28;19947;-82
2023/12/13 13:37:41;;;;;;;;;;;;;;;;;;6295779;28;19945;-80
2023/12/13 13:40:41;;;;;;;;;;;;;;;;;;6300275;28;19917;-80
2023/12/13 13:43:42;;;;;;;;;;;;;;;;;;6318674;28;20002;-80
2023/12/13 13:46:42;;;;;;;;;;;;;;;;;;6302229;28;19956;-81
2023/12/13 13:49:42;;;;;;;;;;;;;;;;;;6315490;28;19927;-81
2023/12/13 13:52:42;;;;;;;;;;;;;;;;;;6309620;28;19939;-80
2023/12/13 13:55:44;;;;;;;;;;;;;;;;;;6308065;28;19973;-82
2023/12/13 13:58:46;;;;;;;;;;;;;;;;;;6302604;28;20327;-80
2023/12/13 14:01:47;;;;;;;;;;;;;;;;;;6304848;28;19916;-80
2023/12/13 14:04:47;;;;;;;;;;;;;;;;;;6292992;28;20305;-80
2023/12/13 14:07:47;;;;;;;;;;;;;;;;;;6295135;28;19963;-81
2023/12/13 14:10:49;;;;;;;;;;;;;;;;;;6317868;28;19951;-81
2023/12/13 14:13:50;;;;;;;;;;;;;;;;;;6284935;28;20008;-80
2023/12/13 14:16:50;;;;;;;;;;;;;;;;;;6292864;28;19913;-81
2023/12/13 14:19:50;;;;;;;;;;;;;;;;;;6304968;28;20049;-81
2023/12/13 14:22:50;;;;;;;;;;;;;;;;;;6307273;28;19912;-81
2023/12/13 14:25:52;;;;;;;;;;;;;;;;;;6304647;28;20026;-80
2023/12/13 14:28:53;;;;;;;;;;;;;;;;;;6311732;28;20430;-80
2023/12/13 14:31:53;;;;;;;;;;;;;;;;;;6307996;28;19921;-81
2023/12/13 14:34:53;;;;;;;;;;;;;;;;;;6300626;28;19917;-80
2023/12/13 14:37:53;;;;;;;;;;;;;;;;;;6291258;28;20300;-81
2023/12/13 14:40:53;;;;;;;;;;;;;;;;;;6303050;28;20011;-80
2023/12/13 14:43:53;;;;;;;;;;;;;;;;;;6303999;28;19982;-81
2023/12/13 14:46:54;;;;;;;;;;;;;;;;;;6297142;28;19985;-80
2023/12/13 14:49:55;;;;;;;;;;;;;;;;;;6307299;28;20393;-80
2023/12/13 14:52:55;;;;;;;;;;;;;;;;;;6314767;28;19920;-81
2023/12/13 14:55:55;;;;;;;;;;;;;;;;;;6313295;28;19959;-80
2023/12/13 14:58:56;;;;;;;;;;;;;;;;;;6306137;28;20278;-81
2023/12/13 15:01:56;;;;;;;;;;;;;;;;;;6308112;28;20369;-82
2023/12/13 15:04:56;;;;;;;;;;;;;;;;;;6301729;28;19924;-81
2023/12/13 15:07:56;;;;;;;;;;;;;;;;;;6299942;28;19920;-81
2023/12/13 15:10:57;;;;;;;;;;;;;;;;;;6282073;28;19939;-81
2023/12/13 15:13:57;;;;;;;;;;;;;;;;;;6300078;28;19971;-80
2023/12/13 15:16:57;;;;;;;;;;;;;;;;;;6316807;28;20386;-82
2023/12/13 15:19:57;;;;;;;;;;;;;;;;;;6318214;28;20444;-81
2023/12/13 15:22:57;;;;;;;;;;;;;;;;;;6302780;28;20368;-81
2023/12/13 15:25:58;;;;;;;;;;;;;;;;;;6298556;28;20451;-80
2023/12/13 15:28:59;;;;;;;;;;;;;;;;;;6303147;28;19925;-80
2023/12/13 15:31:59;;;;;;;;;;;;;;;;;;6297037;28;20332;-81
2023/12/13 15:35:00;;;;;;;;;;;;;;;;;;6315225;28;20008;-85
2023/12/13 15:38:00;;;;;;;;;;;;;;;;;;6298694;28;20365;-84
2023/12/13 15:41:00;;;;;;;;;;;;;;;;;;6298693;28;19939;-85
2023/12/13 15:44:06;;;;;;;;;;;;;;;;;;6298744;28;20273;-84
2023/12/13 15:47:06;;;;;;;;;;;;;;;;;;6303393;28;20371;-85
2023/12/13 15:50:06;;;;;;;;;;;;;;;;;;6297617;28;19923;-86
2023/12/13 15:53:07;;;;;;;;;;;;;;;;;;6300738;28;19960;-85
2023/12/13 15:56:08;;;;;;;;;;;;;;;;;;6283245;28;19916;-85
2023/12/13 15:59:08;;;;;;;;;;;;;;;;;;6297491;28;19920;-85
2023/12/13 16:02:08;;;;;;;;;;;;;;;;;;6301469;28;20292;-85
2023/12/13 16:05:09;;;;;;;;;;;;;;;;;;6301305;28;20009;-85
2023/12/13 16:08:10;;;;;;;;;;;;;;;;;;6300994;28;19920;-85
2023/12/13 16:11:10;;;;;;;;;;;;;;;;;;6299246;28;19916;-84
2023/12/13 16:14:10;;;;;;;;;;;;;;;;;;6303458;28;19965;-84
2023/12/13 16:17:10;;;;;;;;;;;;;;;;;;5949416;28;10000037;-84
2023/12/13 16:20:11;;;;;;;;;;;;;;;;;;6295627;28;20309;-84
2023/12/13 16:23:11;;;;;;;;;;;;;;;;;;6301932;28;19955;-85
2023/12/13 16:26:11;;;;;;;;;;;;;;;;;;6299685;28;20361;-85
2023/12/13 16:29:11;;;;;;;;;;;;;;;;;;6305029;28;19955;-85
2023/12/13 16:32:11;;;;;;;;;;;;;;;;;;6297701;28;20086;-84
2023/12/13 16:35:13;;;;;;;;;;;;;;;;;;6303040;28;19986;-85
2023/12/13 16:38:13;;;;;;;;;;;;;;;;;;6303638;28;19912;-85
2023/12/13 16:41:13;;;;;;;;;;;;;;;;;;6298774;28;19981;-84
2023/12/13 16:44:13;;;;;;;;;;;;;;;;;;6301174;28;19920;-80
2023/12/13 16:47:13;;;;;;;;;;;;;;;;;;6300635;28;19931;-80
2023/12/13 16:50:14;;;;;;;;;;;;;;;;;;6301774;28;20010;-80
2023/12/13 16:53:15;;;;;;;;;;;;;;;;;;6299470;28;19912;-82
2023/12/13 16:56:15;;;;;;;;;;;;;;;;;;6295469;28;20011;-81
2023/12/13 16:59:16;;;;;;;;;;;;;;;;;;6299448;28;19923;-80
2023/12/13 17:02:16;;;;;;;;;;;;;;;;;;6302820;28;19963;-80
2023/12/13 17:05:16;;;;;;;;;;;;;;;;;;6296425;28;20094;-80
2023/12/13 17:08:17;;;;;;;;;;;;;;;;;;6000381;28;10000368;-80
2023/12/13 17:11:17;;;;;;;;;;;;;;;;;;6298337;28;19912;-80
2023/12/13 17:14:18;;;;;;;;;;;;;;;;;;6299586;28;19913;-80
2023/12/13 17:17:18;;;;;;;;;;;;;;;;;;6302735;28;19990;-79
2023/12/13 17:20:18;;;;;;;;;;;;;;;;;;6299152;28;19912;-80
2023/12/13 17:23:18;;;;;;;;;;;;;;;;;;6286157;28;19944;-81
2023/12/13 17:26:21;;;;;;;;;;;;;;;;;;6300575;28;19925;-80
2023/12/13 17:29:21;;;;;;;;;;;;;;;;;;6298924;28;19913;-81
2023/12/13 17:32:21;;;;;;;;;;;;;;;;;;6304533;28;20007;-80
2023/12/13 17:35:22;;;;;;;;;;;;;;;;;;6301354;28;20023;-80
2023/12/13 17:38:22;;;;;;;;;;;;;;;;;;6295571;28;20328;-81
2023/12/13 17:41:22;;;;;;;;;;;;;;;;;;6294858;28;19916;-80
2023/12/13 17:44:22;;;;;;;;;;;;;;;;;;6301258;28;19998;-80
2023/12/13 17:47:23;;;;;;;;;;;;;;;;;;6297974;28;20001;-80
2023/12/13 17:50:23;;;;;;;;;;;;;;;;;;6299662;28;19912;-81
2023/12/13 17:53:24;;;;;;;;;;;;;;;;;;6296988;28;20397;-82
2023/12/13 17:56:24;;;;;;;;;;;;;;;;;;6302853;28;19965;-81
2023/12/13 17:59:24;;;;;;;;;;;;;;;;;;6304487;28;20369;-80
2023/12/13 18:02:26;;;;;;;;;;;;;;;;;;6305668;28;20297;-81
2023/12/13 18:05:26;;;;;;;;;;;;;;;;;;6300481;28;19924;-82
2023/12/13 18:08:26;;;;;;;;;;;;;;;;;;6300600;28;19932;-81
2023/12/13 18:11:28;;;;;;;;;;;;;;;;;;6298113;28;19959;-82
2023/12/13 18:14:28;;;;;;;;;;;;;;;;;;6306112;28;20365;-80
2023/12/13 18:17:28;;;;;;;;;;;;;;;;;;6296740;28;19982;-80
2023/12/13 18:20:28;;;;;;;;;;;;;;;;;;6295896;28;19920;-82
2023/12/13 18:23:28;;;;;;;;;;;;;;;;;;6300161;28;20031;-82
2023/12/13 18:26:29;;;;;;;;;;;;;;;;;;6301989;28;19966;-80
2023/12/13 18:29:31;;;;;;;;;;;;;;;;;;6306698;28;19920;-80
2023/12/13 18:32:31;;;;;;;;;;;;;;;;;;6294397;28;19924;-81
2023/12/13 18:35:31;;;;;;;;;;;;;;;;;;6296683;28;19943;-80
2023/12/13 18:38:31;;;;;;;;;;;;;;;;;;6295630;28;19916;-81
2023/12/13 18:41:31;;;;;;;;;;;;;;;;;;6294760;28;20335;-81
2023/12/13 18:44:32;;;;;;;;;;;;;;;;;;6302711;28;19920;-80
2023/12/13 18:47:32;;;;;;;;;;;;;;;;;;6301644;28;20375;-79
2023/12/13 18:50:32;;;;;;;;;;;;;;;;;;6301112;28;19958;-79
2023/12/13 18:53:32;;;;;;;;;;;;;;;;;;6293245;28;20007;-79
2023/12/13 18:56:32;;;;;;;;;;;;;;;;;;6303049;28;20002;-80
2023/12/13 18:59:32;;;;;;;;;;;;;;;;;;6304053;28;19916;-80
2023/12/13 19:02:33;;;;;;;;;;;;;;;;;;6296468;28;19923;-80
2023/12/13 19:05:35;;;;;;;;;;;;;;;;;;6299602;28;19928;-80
2023/12/13 19:08:35;;;;;;;;;;;;;;;;;;6298803;28;19916;-80
2023/12/13 19:11:35;;;;;;;;;;;;;;;;;;6295896;28;19970;-80
2023/12/13 19:14:35;;;;;;;;;;;;;;;;;;6297079;28;19922;-81
2023/12/13 19:17:36;;;;;;;;;;;;;;;;;;6299820;28;19920;-81
2023/12/13 19:20:36;;;;;;;;;;;;;;;;;;6300952;28;20373;-80
2023/12/13 19:23:36;;;;;;;;;;;;;;;;;;6301865;28;19916;-80
2023/12/13 19:26:36;;;;;;;;;;;;;;;;;;6295837;28;19950;-81
2023/12/13 19:29:36;;;;;;;;;;;;;;;;;;6297496;28;19920;-81
2023/12/13 19:32:36;;;;;;;;;;;;;;;;;;6287256;28;19928;-81
2023/12/13 19:35:36;;;;;;;;;;;;;;;;;;6302543;28;19978;-81
2023/12/13 19:38:37;;;;;;;;;;;;;;;;;;6298496;28;20049;-82
2023/12/13 19:41:37;;;;;;;;;;;;;;;;;;6298118;28;19931;-81
2023/12/13 19:44:37;;;;;;;;;;;;;;;;;;6299082;28;19916;-81
2023/12/13 19:47:37;;;;;;;;;;;;;;;;;;6294062;28;19924;-81
2023/12/13 19:50:39;;;;;;;;;;;;;;;;;;6299757;28;19978;-81
2023/12/13 19:53:39;;;;;;;;;;;;;;;;;;6292043;28;20415;-81
2023/12/13 19:56:39;;;;;;;;;;;;;;;;;;6294978;28;19947;-80
2023/12/13 19:59:40;;;;;;;;;;;;;;;;;;6298672;28;19923;-81
2023/12/13 20:02:40;;;;;;;;;;;;;;;;;;6294677;28;19935;-81
2023/12/13 20:05:40;;;;;;;;;;;;;;;;;;6297909;28;19942;-81
2023/12/13 20:08:40;;;;;;;;;;;;;;;;;;6301310;28;20416;-81
2023/12/13 20:11:40;;;;;;;;;;;;;;;;;;6278836;28;19923;-81
2023/12/13 20:14:41;;;;;;;;;;;;;;;;;;5945654;28;9999929;-81
2023/12/13 20:17:41;;;;;;;;;;;;;;;;;;6298925;28;19920;-81
2023/12/13 20:20:41;;;;;;;;;;;;;;;;;;6303595;28;19934;-80
2023/12/13 20:23:41;;;;;;;;;;;;;;;;;;6300382;28;22885;-82
2023/12/13 20:26:41;;;;;;;;;;;;;;;;;;6312886;28;20335;-81
2023/12/13 20:29:42;;;;;;;;;;;;;;;;;;6293051;28;20394;-81